Terminal Aerodrome Forecast
Issued by NWS Memphis, TN

Current Version | Previous Version | Text Only | Print | Product List | Glossary On
Versions: 1 2 3 4 5 6 7 8 9 10 11 12 13 14 15 16 17 18 19 20 21
000
FTUS44 KMEG 241738
TAFMKL
TAF
KMKL 241738Z 2418/2518 17012G20KT P6SM SCT060
     FM250300 18013G22KT P6SM VCTS SCT025CB BKN050 BKN200
      TEMPO 2504/2506 3SM TSRA BKN025CB
     FM250600 18012G20KT P6SM -SHRA VCTS OVC035CB
     FM251200 19010KT P6SM VCSH OVC020=

USA.gov is the U.S. government's official web portal to all federal, state and local government web resources and services.